createdAt,value
2022-11-15T00:00:59.994Z,63.75
2022-11-15T00:03:45.469Z,66.40
2022-11-15T00:06:30.391Z,68.88
2022-11-15T00:09:15.317Z,67.13
2022-11-15T00:12:00.091Z,63.30
2022-11-15T00:14:45.074Z,69.05
2022-11-15T00:17:30.599Z,68.07
2022-11-15T00:20:15.801Z,64.10
2022-11-15T00:23:00.997Z,65.57
2022-11-15T00:25:45.999Z,64.97
2022-11-15T00:28:30.882Z,67.78
2022-11-15T00:31:15.827Z,66.43
2022-11-15T00:34:01.105Z,64.43
2022-11-15T00:36:46.047Z,70.03
2022-11-15T00:39:31.289Z,69.82
2022-11-15T00:42:16.191Z,71.45
2022-11-15T00:45:01.169Z,67.53
2022-11-15T00:47:47.194Z,66.72
2022-11-15T00:50:32.342Z,65.85
2022-11-15T00:53:17.600Z,66.10
2022-11-15T00:56:02.490Z,66.75
2022-11-15T00:58:47.560Z,62.88
2022-11-15T01:01:32.594Z,68.05
2022-11-15T01:04:17.528Z,71.85
2022-11-15T01:07:02.575Z,72.45
2022-11-15T01:09:47.801Z,73.93
2022-11-15T01:12:36.363Z,67.20
2022-11-15T01:15:21.364Z,69.82
2022-11-15T01:18:06.410Z,66.38
2022-11-15T01:20:51.432Z,71.68
2022-11-15T01:23:36.427Z,79.25
2022-11-15T01:26:22.303Z,75.40
2022-11-15T01:29:07.476Z,75.78
2022-11-15T01:31:54.212Z,78.40
2022-11-15T01:34:39.517Z,70.47
2022-11-15T01:37:24.403Z,73.10
2022-11-15T01:40:10.009Z,76.47
2022-11-15T01:42:55.117Z,75.85
2022-11-15T01:45:40.017Z,79.13
2022-11-15T01:48:32.408Z,71.40
2022-11-15T01:51:20.166Z,77.25
2022-11-15T01:54:09.782Z,71.80
2022-11-15T01:57:02.474Z,68.93
2022-11-15T01:59:47.911Z,76.97
2022-11-15T02:02:35.125Z,69.78
2022-11-15T02:05:20.221Z,74.22
2022-11-15T02:08:05.820Z,71.97
2022-11-15T02:10:50.939Z,78.13
2022-11-15T02:13:36.990Z,70.60
2022-11-15T02:16:49.954Z,69.15
2022-11-15T02:19:34.795Z,71.22
2022-11-15T02:23:00.637Z,66.05
2022-11-15T02:26:03.550Z,67.85
2022-11-15T02:29:04.907Z,73.20
2022-11-15T02:32:08.770Z,73.57
2022-11-15T02:35:15.410Z,68.00
2022-11-15T02:38:08.942Z,63.40
2022-11-15T02:41:07.753Z,64.85
2022-11-15T02:44:04.486Z,65.68
2022-11-15T02:47:13.673Z,66.00
2022-11-15T02:50:03.271Z,63.63
2022-11-15T02:52:51.970Z,67.45
2022-11-15T02:55:46.194Z,66.38
2022-11-15T02:59:06.576Z,61.42
2022-11-15T03:02:19.138Z,62.60
2022-11-15T03:05:24.530Z,66.72
2022-11-15T03:08:12.085Z,60.00
2022-11-15T03:11:12.798Z,58.03
2022-11-15T03:14:19.976Z,61.00
2022-11-15T03:17:27.392Z,65.82
2022-11-15T03:20:16.814Z,64.63
2022-11-15T03:23:07.163Z,70.40
2022-11-15T03:25:54.423Z,63.75
2022-11-15T03:28:49.851Z,73.47
2022-11-15T03:31:51.111Z,80.72
2022-11-15T03:34:48.425Z,77.38
2022-11-15T03:37:47.096Z,75.28
2022-11-15T03:40:39.091Z,79.35
2022-11-15T03:43:44.152Z,75.35
2022-11-15T03:46:37.896Z,69.50
2022-11-15T03:49:31.892Z,72.88
2022-11-15T03:52:19.923Z,77.47
2022-11-15T03:55:08.470Z,73.20
2022-11-15T03:57:57.516Z,73.85
2022-11-15T04:00:42.512Z,71.00
2022-11-15T04:03:27.449Z,69.35
2022-11-15T04:06:12.585Z,68.72
2022-11-15T04:08:57.569Z,72.95
2022-11-15T04:11:42.667Z,73.60
2022-11-15T04:14:27.637Z,73.18
2022-11-15T04:17:12.613Z,72.93
2022-11-15T04:20:16.279Z,75.80
2022-11-15T04:23:22.912Z,66.45
2022-11-15T04:26:12.119Z,67.00
2022-11-15T04:29:15.685Z,78.22
2022-11-15T04:32:04.765Z,73.82
2022-11-15T04:34:50.062Z,70.90
2022-11-15T04:37:34.929Z,70.85
2022-11-15T04:40:19.921Z,71.82
2022-11-15T04:43:05.582Z,72.40
2022-11-15T04:45:50.575Z,68.03
2022-11-15T04:48:35.461Z,69.38
2022-11-15T04:51:20.696Z,67.95
2022-11-15T04:54:07.090Z,66.78
2022-11-15T04:56:52.009Z,66.80
2022-11-15T04:59:36.982Z,66.53
2022-11-15T05:02:21.768Z,66.82
2022-11-15T05:05:06.903Z,60.60
2022-11-15T05:07:52.143Z,59.35
2022-11-15T05:10:37.313Z,61.70
2022-11-15T05:13:22.263Z,58.30
2022-11-15T05:16:07.375Z,65.00
2022-11-15T05:18:54.427Z,67.03
2022-11-15T05:21:39.520Z,62.13
2022-11-15T05:24:24.680Z,65.63
2022-11-15T05:27:09.618Z,61.42
2022-11-15T05:29:54.516Z,59.92
2022-11-15T05:32:39.921Z,63.38
2022-11-15T05:35:37.841Z,58.22
2022-11-15T05:38:24.583Z,62.67
2022-11-15T05:41:09.850Z,58.08
2022-11-15T05:43:55.078Z,62.38
2022-11-15T05:46:41.998Z,62.90
2022-11-15T05:49:32.126Z,60.35
2022-11-15T05:52:21.275Z,67.45
2022-11-15T05:55:07.815Z,56.25
2022-11-15T05:57:52.726Z,62.25
2022-11-15T06:00:37.787Z,62.85
2022-11-15T06:03:22.898Z,66.30
2022-11-15T06:06:12.256Z,64.75
2022-11-15T06:09:00.053Z,60.63
2022-11-15T06:11:44.998Z,63.22
2022-11-15T06:14:30.769Z,56.80
2022-11-15T06:17:15.567Z,51.25
2022-11-15T06:20:00.543Z,53.55
2022-11-15T06:22:45.613Z,57.67
2022-11-15T06:25:31.960Z,55.30
2022-11-15T06:28:16.859Z,56.35
2022-11-15T06:31:07.221Z,54.13
2022-11-15T06:33:52.709Z,52.85
2022-11-15T06:36:38.036Z,53.58
2022-11-15T06:39:22.972Z,53.90
2022-11-15T06:42:09.333Z,58.35
2022-11-15T06:44:54.217Z,61.10
2022-11-15T06:47:47.518Z,55.88
2022-11-15T06:50:32.721Z,52.95
2022-11-15T06:53:17.543Z,63.40
2022-11-15T06:56:04.156Z,58.08
2022-11-15T06:58:49.306Z,59.35
2022-11-15T07:01:34.258Z,62.63
2022-11-15T07:04:19.699Z,59.92
2022-11-15T07:07:04.685Z,59.75
2022-11-15T07:09:49.586Z,61.80
2022-11-15T07:12:34.530Z,63.38
2022-11-15T07:15:21.384Z,65.50
2022-11-15T07:18:06.565Z,62.10
2022-11-15T07:20:51.330Z,61.85
2022-11-15T07:23:40.273Z,58.33
2022-11-15T07:26:25.218Z,62.22
2022-11-15T07:29:10.062Z,58.40
2022-11-15T07:31:55.280Z,60.78
2022-11-15T07:34:40.371Z,64.30
2022-11-15T07:37:25.335Z,63.53
2022-11-15T07:40:10.534Z,65.13
2022-11-15T07:43:03.672Z,65.05
2022-11-15T07:45:48.625Z,60.28
2022-11-15T07:48:43.429Z,65.03
2022-11-15T07:51:29.671Z,58.53
2022-11-15T07:54:14.407Z,59.72
2022-11-15T07:57:03.909Z,60.35
2022-11-15T07:59:51.679Z,64.45
2022-11-15T08:02:36.784Z,58.47
2022-11-15T08:05:22.069Z,61.45
2022-11-15T08:08:08.314Z,59.83
2022-11-15T08:10:53.315Z,53.47
2022-11-15T08:13:38.231Z,59.13
2022-11-15T08:16:23.073Z,59.20
2022-11-15T08:19:07.948Z,57.33
2022-11-15T08:21:52.921Z,61.78
2022-11-15T08:24:39.472Z,62.28
2022-11-15T08:27:24.834Z,60.30
2022-11-15T08:30:11.264Z,60.67
2022-11-15T08:33:02.407Z,59.70
2022-11-15T08:35:49.586Z,53.92
2022-11-15T08:38:34.798Z,58.35
2022-11-15T08:41:30.749Z,59.08
2022-11-15T08:44:16.179Z,56.60
2022-11-15T08:47:05.033Z,64.05
2022-11-15T08:49:50.449Z,58.28
2022-11-15T08:52:35.602Z,55.83
2022-11-15T08:55:24.407Z,53.88
2022-11-15T08:58:13.635Z,59.30
2022-11-15T09:01:02.847Z,54.95
2022-11-15T09:03:48.693Z,47.40
2022-11-15T09:06:43.225Z,50.35
2022-11-15T09:09:28.737Z,46.08
2022-11-15T09:12:13.883Z,46.97
2022-11-15T09:14:59.152Z,46.15
2022-11-15T09:17:44.482Z,41.72
2022-11-15T09:20:29.504Z,46.15
2022-11-15T09:23:14.284Z,43.28
2022-11-15T09:26:05.484Z,45.65
2022-11-15T09:28:51.056Z,44.83
2022-11-15T09:31:36.006Z,46.40
2022-11-15T09:34:21.968Z,51.95
2022-11-15T09:37:06.834Z,44.67
2022-11-15T09:39:51.832Z,46.78
2022-11-15T09:42:59.506Z,39.72
2022-11-15T09:46:07.529Z,45.00
2022-11-15T09:48:59.847Z,42.78
2022-11-15T09:51:47.614Z,41.63
2022-11-15T09:54:52.137Z,46.65
2022-11-15T09:57:19.545Z,40.35
2022-11-15T09:59:56.855Z,42.35
2022-11-15T10:02:43.864Z,39.83
2022-11-15T10:05:18.295Z,39.28
2022-11-15T10:07:58.533Z,43.53
2022-11-15T10:10:40.244Z,43.20
2022-11-15T10:13:17.647Z,38.88
2022-11-15T10:15:46.571Z,37.90
2022-11-15T10:18:23.345Z,39.47
2022-11-15T10:20:56.170Z,41.22
2022-11-15T10:23:24.182Z,43.03
2022-11-15T10:26:06.650Z,40.22
2022-11-15T10:28:33.934Z,36.05
2022-11-15T10:31:02.082Z,35.22
2022-11-15T10:33:39.574Z,36.55
2022-11-15T10:36:14.483Z,33.25
2022-11-15T10:38:53.814Z,36.35
2022-11-15T10:41:32.388Z,37.53
2022-11-15T10:44:07.877Z,34.30
2022-11-15T10:46:51.936Z,33.35
2022-11-15T10:49:25.184Z,29.67
2022-11-15T10:52:13.067Z,32.45
2022-11-15T10:54:47.324Z,31.88
2022-11-15T10:57:23.584Z,31.92
2022-11-15T10:59:53.388Z,33.42
2022-11-15T11:02:33.600Z,31.23
2022-11-15T11:05:01.032Z,29.47
2022-11-15T11:07:31.194Z,28.88
2022-11-15T11:10:44.096Z,28.10
2022-11-15T11:13:24.566Z,27.08
2022-11-15T11:16:06.535Z,26.98
2022-11-15T11:19:02.312Z,27.33
2022-11-15T11:21:44.633Z,28.92
2022-11-15T11:24:30.954Z,31.40
2022-11-15T11:27:09.034Z,24.73
2022-11-15T11:29:57.019Z,24.05
2022-11-15T11:32:58.641Z,26.10
2022-11-15T11:35:33.179Z,26.50
2022-11-15T11:38:25.393Z,24.05
2022-11-15T11:41:16.088Z,22.73
2022-11-15T11:44:03.565Z,25.65
2022-11-15T11:47:09.998Z,20.02
2022-11-15T11:49:45.709Z,25.23
2022-11-15T11:52:27.738Z,25.17
2022-11-15T11:55:11.847Z,23.65
2022-11-15T11:58:12.204Z,19.35
2022-11-15T12:00:47.506Z,20.57
2022-11-15T12:03:33.173Z,23.30
2022-11-15T12:06:11.286Z,22.38
2022-11-15T12:09:15.337Z,23.35
2022-11-15T12:12:09.482Z,18.67
2022-11-15T12:14:46.687Z,19.73
2022-11-15T12:17:14.003Z,19.58
2022-11-15T12:19:41.374Z,22.60
2022-11-15T12:22:17.584Z,22.35
2022-11-15T12:24:55.986Z,18.95
2022-11-15T12:27:41.469Z,19.25
2022-11-15T12:30:20.519Z,20.63
2022-11-15T12:32:59.817Z,18.20
2022-11-15T12:35:33.989Z,19.67
2022-11-15T12:38:00.577Z,18.33
2022-11-15T12:40:31.020Z,19.38
2022-11-15T12:43:10.712Z,20.20
2022-11-15T12:45:46.989Z,17.70
2022-11-15T12:48:16.173Z,21.98
2022-11-15T12:50:56.937Z,20.50
2022-11-15T12:53:34.557Z,19.65
2022-11-15T12:56:12.954Z,22.90
2022-11-15T12:58:49.802Z,20.95
2022-11-15T13:01:31.956Z,21.25
2022-11-15T13:04:20.194Z,21.73
2022-11-15T13:06:52.614Z,19.73
2022-11-15T13:09:37.200Z,21.50
2022-11-15T13:12:05.544Z,20.40
2022-11-15T13:14:37.825Z,18.73
2022-11-15T13:17:22.542Z,19.05
2022-11-15T13:19:59.722Z,19.00
2022-11-15T13:22:46.247Z,21.48
2022-11-15T13:25:46.208Z,20.75
2022-11-15T13:28:15.211Z,20.67
2022-11-15T13:30:51.056Z,17.98
2022-11-15T13:33:33.054Z,18.27
2022-11-15T13:36:06.676Z,19.77
2022-11-15T13:38:38.638Z,22.52
2022-11-15T13:41:35.558Z,21.98
2022-11-15T13:44:03.674Z,16.17
2022-11-15T13:46:34.811Z,16.08
2022-11-15T13:49:04.063Z,19.77
2022-11-15T13:51:49.431Z,17.10
2022-11-15T13:54:26.232Z,15.75
2022-11-15T13:56:56.777Z,17.90
2022-11-15T13:59:28.383Z,19.20
2022-11-15T14:01:57.565Z,21.20
2022-11-15T14:04:27.383Z,17.20
2022-11-15T14:06:58.343Z,19.20
2022-11-15T14:12:00.518Z,17.35
2022-11-15T14:14:30.709Z,18.73
2022-11-15T14:17:00.169Z,18.23
2022-11-15T14:19:26.604Z,15.45
2022-11-15T14:22:16.436Z,18.60
2022-11-15T14:24:48.505Z,19.08
2022-11-15T14:27:21.164Z,20.83
2022-11-15T14:29:48.752Z,16.10
2022-11-15T14:32:24.016Z,18.30
2022-11-15T14:34:59.152Z,15.93
2022-11-15T14:37:28.249Z,15.98
2022-11-15T14:39:55.686Z,17.75
2022-11-15T14:42:24.054Z,19.58
2022-11-15T14:44:51.049Z,16.83
2022-11-15T14:47:17.885Z,19.10
2022-11-15T14:49:44.911Z,16.17
2022-11-15T14:52:32.627Z,17.67
2022-11-15T14:55:00.278Z,15.07
2022-11-15T14:57:26.754Z,16.70
2022-11-15T14:59:53.295Z,15.82
2022-11-15T15:02:22.941Z,17.77
2022-11-15T15:04:50.110Z,19.67
2022-11-15T15:07:17.286Z,16.15
2022-11-15T15:09:44.932Z,14.82
2022-11-15T15:12:22.975Z,20.85
2022-11-15T15:14:51.079Z,18.10
2022-11-15T15:17:18.417Z,20.10
2022-11-15T15:19:44.835Z,23.05
2022-11-15T15:22:17.384Z,19.83
2022-11-15T15:24:45.350Z,17.27
2022-11-15T15:27:12.849Z,20.00
2022-11-15T15:29:39.634Z,18.83
2022-11-15T15:32:06.653Z,24.33
2022-11-15T15:34:33.511Z,27.15
2022-11-15T15:37:23.807Z,17.15
2022-11-15T15:39:57.341Z,21.03
2022-11-15T15:42:24.296Z,22.65
2022-11-15T15:44:51.705Z,19.45
2022-11-15T15:47:21.067Z,20.98
2022-11-15T15:49:48.520Z,27.10
2022-11-15T15:52:14.927Z,29.48
2022-11-15T15:54:41.404Z,24.95
2022-11-15T15:57:09.345Z,29.00
2022-11-15T15:59:35.740Z,28.27
2022-11-15T16:02:02.149Z,26.27
2022-11-15T16:04:29.479Z,24.95
2022-11-15T16:07:00.781Z,26.50
2022-11-15T16:09:46.541Z,23.58
2022-11-15T16:12:12.944Z,26.27
2022-11-15T16:14:39.338Z,29.70
2022-11-15T16:17:06.149Z,30.35
2022-11-15T16:19:32.542Z,24.88
2022-11-15T16:21:58.937Z,28.23
2022-11-15T16:24:25.343Z,26.45
2022-11-15T16:26:52.739Z,29.38
2022-11-15T16:29:19.118Z,25.85
2022-11-15T16:31:45.576Z,28.88
2022-11-15T16:34:11.988Z,29.25
2022-11-15T16:36:38.492Z,26.33
2022-11-15T16:39:05.066Z,27.38
2022-11-15T16:41:31.786Z,26.52
2022-11-15T16:43:58.233Z,27.40
2022-11-15T16:46:26.652Z,24.40
2022-11-15T16:48:56.474Z,29.80
2022-11-15T16:51:23.548Z,26.92
2022-11-15T16:53:50.125Z,27.23
2022-11-15T16:56:29.816Z,25.60
2022-11-15T16:58:58.571Z,26.70
2022-11-15T17:01:30.858Z,27.95
2022-11-15T17:03:57.598Z,32.60
2022-11-15T17:06:26.502Z,31.38
2022-11-15T17:08:53.042Z,31.00
2022-11-15T17:11:22.108Z,29.73
2022-11-15T17:13:49.471Z,29.88
2022-11-15T17:16:18.372Z,30.55
2022-11-15T17:18:47.558Z,28.90
2022-11-15T17:21:17.104Z,27.25
2022-11-15T17:23:43.919Z,28.15
2022-11-15T17:26:29.639Z,40.35
2022-11-15T17:28:57.258Z,30.77
2022-11-15T17:31:23.675Z,37.90
2022-11-15T17:33:50.130Z,31.45
2022-11-15T17:36:16.552Z,31.75
2022-11-15T17:38:43.828Z,36.00
2022-11-15T17:41:13.598Z,34.80
2022-11-15T17:43:40.469Z,34.10
2022-11-15T17:46:09.001Z,31.45
2022-11-15T17:48:35.627Z,33.00
2022-11-15T17:51:07.416Z,35.08
2022-11-15T17:53:37.894Z,34.45
2022-11-15T17:56:09.204Z,32.40
2022-11-15T17:58:35.914Z,32.65
2022-11-15T18:01:06.863Z,34.55
2022-11-15T18:06:00.979Z,38.42
2022-11-15T18:08:27.389Z,37.17
2022-11-15T18:11:05.304Z,38.85
2022-11-15T18:13:32.115Z,44.78
2022-11-15T18:16:02.484Z,42.70
2022-11-15T18:18:30.157Z,46.30
2022-11-15T18:21:11.451Z,46.78
2022-11-15T18:23:38.262Z,47.35
2022-11-15T18:26:06.525Z,55.33
2022-11-15T18:28:35.794Z,49.60
2022-11-15T18:31:04.340Z,52.53
2022-11-15T18:33:35.318Z,58.13
2022-11-15T18:36:07.254Z,53.15
2022-11-15T18:38:34.108Z,53.35
2022-11-15T18:41:09.120Z,55.20
2022-11-15T18:43:35.997Z,57.78
2022-11-15T18:46:11.118Z,55.53
2022-11-15T18:48:39.908Z,60.83
2022-11-15T18:51:14.448Z,63.13
2022-11-15T18:53:42.369Z,59.95
2022-11-15T18:56:11.033Z,63.97
2022-11-15T18:58:45.887Z,68.35
2022-11-15T19:01:12.281Z,73.28
2022-11-15T19:03:40.438Z,68.05
2022-11-15T19:06:09.473Z,70.78
2022-11-15T19:08:37.160Z,67.68
2022-11-15T19:11:10.307Z,69.28
2022-11-15T19:13:36.724Z,65.85
2022-11-15T19:16:04.030Z,64.35
2022-11-15T19:18:32.290Z,72.63
2022-11-15T19:21:14.615Z,64.25
2022-11-15T19:23:42.860Z,66.93
2022-11-15T19:26:15.338Z,64.68
2022-11-15T19:28:42.638Z,56.67
2022-11-15T19:31:12.654Z,56.30
2022-11-15T19:33:40.741Z,54.92
2022-11-15T19:36:16.943Z,62.75
2022-11-15T19:38:43.492Z,61.13
2022-11-15T19:41:12.116Z,70.78
2022-11-15T19:43:38.697Z,62.30
2022-11-15T19:46:06.808Z,70.72
2022-11-15T19:48:34.410Z,73.90
2022-11-15T19:51:02.607Z,73.65
2022-11-15T19:53:34.537Z,65.88
2022-11-15T19:56:06.544Z,72.05
2022-11-15T19:58:34.598Z,66.55
2022-11-15T20:01:03.000Z,72.68
2022-11-15T20:03:30.965Z,69.47
2022-11-15T20:06:09.131Z,75.25
2022-11-15T20:08:36.444Z,67.38
2022-11-15T20:11:04.557Z,74.05
2022-11-15T20:13:31.746Z,75.68
2022-11-15T20:15:58.660Z,71.85
2022-11-15T20:18:26.683Z,82.47
2022-11-15T20:20:54.635Z,79.30
2022-11-15T20:23:21.242Z,79.60
2022-11-15T20:25:48.183Z,74.60
2022-11-15T20:28:19.798Z,78.85
2022-11-15T20:30:47.557Z,78.22
2022-11-15T20:33:14.755Z,77.25
2022-11-15T20:35:41.313Z,69.53
2022-11-15T20:38:08.170Z,62.50
2022-11-15T20:40:34.861Z,63.05
2022-11-15T20:43:01.918Z,69.93
2022-11-15T20:45:28.403Z,67.68
2022-11-15T20:47:56.557Z,67.10
2022-11-15T20:50:41.535Z,69.68
2022-11-15T20:53:09.970Z,60.10
2022-11-15T20:55:47.664Z,63.50
2022-11-15T20:58:20.807Z,66.07
2022-11-15T21:00:48.010Z,69.78
2022-11-15T21:03:14.797Z,71.90
2022-11-15T21:05:42.962Z,67.70
2022-11-15T21:08:11.868Z,66.68
2022-11-15T21:10:59.154Z,73.63
2022-11-15T21:13:26.750Z,74.70
2022-11-15T21:15:56.946Z,84.70
2022-11-15T21:18:24.006Z,87.43
2022-11-15T21:20:53.239Z,88.75
2022-11-15T21:23:19.641Z,92.18
2022-11-15T21:25:50.679Z,92.25
2022-11-15T21:30:52.804Z,107.18
2022-11-15T21:33:19.453Z,120.25
2022-11-15T21:35:45.901Z,124.28
2022-11-15T21:38:12.320Z,127.35
2022-11-15T21:40:38.724Z,119.68
2022-11-15T21:43:05.112Z,120.03
2022-11-15T21:45:31.498Z,127.05
2022-11-15T21:47:57.981Z,125.32
2022-11-15T21:50:24.369Z,132.15
2022-11-15T21:52:50.786Z,137.05
2022-11-15T21:55:17.169Z,134.15
2022-11-15T21:57:43.787Z,139.13
2022-11-15T22:00:29.633Z,137.15
2022-11-15T22:02:56.039Z,127.22
2022-11-15T22:05:23.119Z,129.02
2022-11-15T22:07:49.716Z,127.50
2022-11-15T22:10:16.135Z,130.85
2022-11-15T22:12:42.542Z,136.60
2022-11-15T22:15:09.421Z,129.00
2022-11-15T22:17:54.450Z,126.13
2022-11-15T22:20:43.561Z,133.45
2022-11-15T22:23:07.246Z,128.23
2022-11-15T22:25:33.659Z,128.95
2022-11-15T22:28:00.066Z,127.25
2022-11-15T22:30:26.482Z,128.02
2022-11-15T22:32:52.883Z,128.73
2022-11-15T22:35:19.304Z,129.90
2022-11-15T22:37:45.744Z,124.35
2022-11-15T22:40:12.132Z,117.47
2022-11-15T22:42:38.498Z,129.45
2022-11-15T22:45:05.289Z,119.18
2022-11-15T22:47:31.689Z,129.23
2022-11-15T22:49:58.089Z,123.13
2022-11-15T22:52:24.486Z,126.15
2022-11-15T22:54:50.908Z,123.97
2022-11-15T22:57:17.370Z,115.88
2022-11-15T22:59:43.761Z,134.45
2022-11-15T23:02:10.162Z,129.98
2022-11-15T23:04:36.572Z,126.72
2022-11-15T23:07:02.991Z,123.82
2022-11-15T23:09:29.427Z,119.90
2022-11-15T23:12:14.407Z,118.30
2022-11-15T23:14:40.797Z,121.32
2022-11-15T23:17:07.401Z,119.50
2022-11-15T23:19:33.848Z,115.07
2022-11-15T23:22:19.066Z,107.10
2022-11-15T23:24:45.557Z,109.72
2022-11-15T23:27:15.195Z,120.03
2022-11-15T23:30:00.309Z,101.35
2022-11-15T23:32:45.465Z,108.68
2022-11-15T23:35:11.891Z,106.50
2022-11-15T23:37:38.346Z,102.40
2022-11-15T23:40:05.390Z,117.25
2022-11-15T23:42:31.845Z,107.07
2022-11-15T23:44:58.225Z,111.47
2022-11-15T23:47:24.811Z,103.13
2022-11-15T23:49:51.186Z,115.88
2022-11-15T23:52:17.594Z,123.55
2022-11-15T23:54:44.474Z,123.63
2022-11-15T23:57:12.337Z,123.10
2022-11-15T23:59:40.040Z,117.20
